Terminal Aerodrome Forecast
Issued by NWS Bismarck, ND

Home | Current Version | Previous Version | Graphics & Text | Print | Product List | Glossary On
Versions: 1 2 3 4 5 6 7 8 9 10 11 12 13 14 15 16 17 18 19 20 21 22
000
FTUS43 KBIS 211124
TAFISN
TAF
KISN 211124Z 2112/2212 VRB02KT P6SM BKN080
      TEMPO 2112/2116 1 1/2SM BR SCT002 BKN005
     FM211600 28004KT 3/4SM BR BKN090
     FM212000 28006KT 5SM BR SCT003 BKN035
     FM220100 30006KT 3SM BR BKN007 OVC015
     FM220400 30007KT 1SM BR OVC004=

USA.gov is the U.S. government's official web portal to all federal, state and local government web resources and services.